Meteosat more information blitzortung!


Radar lluvias  rain snow radar


Website of another weatherstation

Website of another weatherstation



No requiere especial atención con respecto al clima.    No hay Alarmas

Informes METAR proximidad

   
LEDA - Lleida/Alguaire
Actualización: 22-10-2018 08:00
NO actual
Niebla, Nublado  
Niebla, Nublado  
   Viento: ENE 5.6 km/h
Viento: ENE 5.6 km/h
Temperatura: 14°C
Punto de rocío: 14°C
Humedad: 100%
Baromètro: 1020 hPa
Nublado: Nublado
Visibilidad: 0 km
detalles de la nube: Nublado 100 ft
LEDA 220600Z AUTO 07003KT 0400 R31/1100D FG VV001 14/14 Q1020
LEXJ - Santander
Actualización: 22-10-2018 16:00
Nubes dispersas  
Nubes dispersas  
   Viento: NE 11.1 km/h
Viento: NE 11.1 km/h
Temperatura: 19°C
Punto de rocío: 14°C
Humedad: 73%
Baromètro: 1028 hPa
Nublado: Nubes dispersas
Visibilidad: 9 km
detalles de la nube: Nubes dispersas 2300 ft
LEXJ 221400Z 05006KT 360V080 9000 FEW023 19/14 Q1028
LEBB - Bilbao
Actualización: 22-10-2018 16:00
Parcialmente Nublado  
Parcialmente Nublado  
   Viento: NNW 14.8 km/h
Viento: NNW 14.8 km/h
Temperatura: 19°C
Punto de rocío: 12°C
Humedad: 64%
Baromètro: 1028 hPa
Nublado: Parcialmente Nublado
Visibilidad: More than 10 km
detalles de la nube: Parcialmente Nublado 3000 ft
LEBB 221400Z 33008KT 280V020 9999 SCT030 19/12 Q1028 NOSIG
LEBL - Barcelona
Actualización: 22-10-2018 16:00
Parcialmente Nublado  
Parcialmente Nublado  
   Viento: E 16.7 km/h
Viento: E 16.7 km/h
Temperatura: 21°C
Punto de rocío: 15°C
Humedad: 69%
Baromètro: 1021 hPa
Nublado: Parcialmente Nublado
Visibilidad: More than 10 km
detalles de la nube: Parcialmente Nublado 4800 ft
LEBL 221400Z 10009KT 9999 SCT048 21/15 Q1021 NOSIG
LEMD - Madrid
Actualización: 22-10-2018 16:00
Nubes dispersas  
Nubes dispersas  
   Viento: NNE 3.7 km/h
Viento: NNE 3.7 km/h
Temperatura: 23°C
Punto de rocío: 12°C
Humedad: 50%
Baromètro: 1021 hPa
Nublado: Nubes dispersas
Visibilidad: More than 10 km
detalles de la nube: Nubes dispersas 4500 ft
LEMD 221400Z 02002KT 9999 FEW045 23/12 Q1021 NOSIG
 

Guión original por  Saratoga-weather.org Adaptado para la plantilla por  Weerstation Leuven

Usted encontrará nuestra información del tiempo también en:

Weather Underground

Iberian Peninsula Weather Network